sensor_id;sensor_type;location;lat;lon;timestamp;temperature;humidity
46366;DHT22;32073;49.166;8.076;2023-05-02T00:03:18;16.40;54.30
46366;DHT22;32073;49.166;8.076;2023-05-02T00:07:19;16.30;54.30
46366;DHT22;32073;49.166;8.076;2023-05-02T00:11:20;16.20;54.30
46366;DHT22;32073;49.166;8.076;2023-05-02T00:15:21;16.20;54.40
46366;DHT22;32073;49.166;8.076;2023-05-02T00:19:21;16.10;54.40
46366;DHT22;32073;49.166;8.076;2023-05-02T00:23:22;16.00;54.40
46366;DHT22;32073;49.166;8.076;2023-05-02T00:27:23;15.90;54.50
46366;DHT22;32073;49.166;8.076;2023-05-02T00:31:24;15.80;54.50
46366;DHT22;32073;49.166;8.076;2023-05-02T00:35:25;15.70;54.50
46366;DHT22;32073;49.166;8.076;2023-05-02T00:39:25;15.70;54.40
46366;DHT22;32073;49.166;8.076;2023-05-02T00:43:29;15.60;54.40
46366;DHT22;32073;49.166;8.076;2023-05-02T00:47:30;15.60;54.50
46366;DHT22;32073;49.166;8.076;2023-05-02T00:51:34;15.60;54.50
46366;DHT22;32073;49.166;8.076;2023-05-02T00:55:35;15.50;54.60
46366;DHT22;32073;49.166;8.076;2023-05-02T00:59:36;15.50;54.50
46366;DHT22;32073;49.166;8.076;2023-05-02T01:07:55;15.40;54.60
46366;DHT22;32073;49.166;8.076;2023-05-02T01:16:23;15.30;54.80
46366;DHT22;32073;49.166;8.076;2023-05-02T01:20:26;15.30;54.50
46366;DHT22;32073;49.166;8.076;2023-05-02T01:24:31;15.30;54.60
46366;DHT22;32073;49.166;8.076;2023-05-02T01:32:57;15.10;54.70
46366;DHT22;32073;49.166;8.076;2023-05-02T01:37:00;15.10;54.40
46366;DHT22;32073;49.166;8.076;2023-05-02T01:41:03;15.10;54.60
46366;DHT22;32073;49.166;8.076;2023-05-02T01:45:07;15.00;54.40
46366;DHT22;32073;49.166;8.076;2023-05-02T01:49:09;15.00;54.60
46366;DHT22;32073;49.166;8.076;2023-05-02T01:53:11;15.00;54.60
46366;DHT22;32073;49.166;8.076;2023-05-02T01:57:15;14.90;54.60
46366;DHT22;32073;49.166;8.076;2023-05-02T02:01:17;14.90;54.80
46366;DHT22;32073;49.166;8.076;2023-05-02T02:05:19;14.90;54.70
46366;DHT22;32073;49.166;8.076;2023-05-02T02:09:21;14.90;54.70
46366;DHT22;32073;49.166;8.076;2023-05-02T02:13:36;14.80;54.70
46366;DHT22;32073;49.166;8.076;2023-05-02T02:17:42;14.80;55.00
46366;DHT22;32073;49.166;8.076;2023-05-02T02:21:46;14.80;54.80
46366;DHT22;32073;49.166;8.076;2023-05-02T02:25:49;14.70;54.80
46366;DHT22;32073;49.166;8.076;2023-05-02T02:29:50;14.70;54.80
46366;DHT22;32073;49.166;8.076;2023-05-02T02:33:51;14.70;54.80
46366;DHT22;32073;49.166;8.076;2023-05-02T02:46:45;14.70;55.20
46366;DHT22;32073;49.166;8.076;2023-05-02T02:51:08;14.80;55.20
46366;DHT22;32073;49.166;8.076;2023-05-02T02:55:16;14.70;55.50
46366;DHT22;32073;49.166;8.076;2023-05-02T02:59:32;14.70;55.40
46366;DHT22;32073;49.166;8.076;2023-05-02T03:03:35;14.80;55.20
46366;DHT22;32073;49.166;8.076;2023-05-02T03:07:36;14.70;55.20
46366;DHT22;32073;49.166;8.076;2023-05-02T03:11:36;14.70;55.40
46366;DHT22;32073;49.166;8.076;2023-05-02T03:19:58;14.80;55.80
46366;DHT22;32073;49.166;8.076;2023-05-02T03:23:59;14.70;55.50
46366;DHT22;32073;49.166;8.076;2023-05-02T03:28:01;14.70;55.50
46366;DHT22;32073;49.166;8.076;2023-05-02T03:32:02;14.70;55.50
46366;DHT22;32073;49.166;8.076;2023-05-02T03:36:03;14.80;55.60
46366;DHT22;32073;49.166;8.076;2023-05-02T03:40:04;14.70;55.70
46366;DHT22;32073;49.166;8.076;2023-05-02T03:44:07;14.60;55.70
46366;DHT22;32073;49.166;8.076;2023-05-02T03:48:08;14.60;55.70
46366;DHT22;32073;49.166;8.076;2023-05-02T03:52:08;14.60;55.80
46366;DHT22;32073;49.166;8.076;2023-05-02T03:56:09;14.60;55.90
46366;DHT22;32073;49.166;8.076;2023-05-02T04:00:10;14.60;56.10
46366;DHT22;32073;49.166;8.076;2023-05-02T04:04:11;14.70;56.30
46366;DHT22;32073;49.166;8.076;2023-05-02T04:08:12;14.70;56.40
46366;DHT22;32073;49.166;8.076;2023-05-02T04:12:14;14.70;56.60
46366;DHT22;32073;49.166;8.076;2023-05-02T04:16:15;14.80;56.70
46366;DHT22;32073;49.166;8.076;2023-05-02T04:20:16;14.90;56.80
46366;DHT22;32073;49.166;8.076;2023-05-02T04:24:16;14.90;56.80
46366;DHT22;32073;49.166;8.076;2023-05-02T04:28:17;14.90;56.90
46366;DHT22;32073;49.166;8.076;2023-05-02T04:32:18;15.00;56.90
46366;DHT22;32073;49.166;8.076;2023-05-02T04:36:19;15.10;57.00
46366;DHT22;32073;49.166;8.076;2023-05-02T04:40:19;15.10;57.00
46366;DHT22;32073;49.166;8.076;2023-05-02T04:44:20;15.20;57.10
46366;DHT22;32073;49.166;8.076;2023-05-02T04:48:21;15.20;57.10
46366;DHT22;32073;49.166;8.076;2023-05-02T04:52:21;15.20;57.00
46366;DHT22;32073;49.166;8.076;2023-05-02T04:56:22;15.20;56.90
46366;DHT22;32073;49.166;8.076;2023-05-02T05:00:23;15.20;57.00
46366;DHT22;32073;49.166;8.076;2023-05-02T05:04:23;15.20;57.10
46366;DHT22;32073;49.166;8.076;2023-05-02T05:08:24;15.20;57.20
46366;DHT22;32073;49.166;8.076;2023-05-02T05:12:25;15.20;57.20
46366;DHT22;32073;49.166;8.076;2023-05-02T05:16:26;15.30;57.30
46366;DHT22;32073;49.166;8.076;2023-05-02T05:20:26;15.30;57.30
46366;DHT22;32073;49.166;8.076;2023-05-02T05:24:27;15.40;57.40
46366;DHT22;32073;49.166;8.076;2023-05-02T05:28:28;15.40;57.40
46366;DHT22;32073;49.166;8.076;2023-05-02T05:32:28;15.40;57.40
46366;DHT22;32073;49.166;8.076;2023-05-02T05:36:29;15.50;57.40
46366;DHT22;32073;49.166;8.076;2023-05-02T05:40:30;15.50;57.40
46366;DHT22;32073;49.166;8.076;2023-05-02T05:44:31;15.50;57.30
46366;DHT22;32073;49.166;8.076;2023-05-02T05:48:32;15.50;57.30
46366;DHT22;32073;49.166;8.076;2023-05-02T05:52:32;15.60;57.40
46366;DHT22;32073;49.166;8.076;2023-05-02T05:56:33;15.60;57.40
46366;DHT22;32073;49.166;8.076;2023-05-02T06:00:34;15.70;57.30
46366;DHT22;32073;49.166;8.076;2023-05-02T06:04:35;15.70;57.40
46366;DHT22;32073;49.166;8.076;2023-05-02T06:08:36;15.70;57.30
46366;DHT22;32073;49.166;8.076;2023-05-02T06:12:36;15.70;57.30
46366;DHT22;32073;49.166;8.076;2023-05-02T06:16:37;15.70;57.20
46366;DHT22;32073;49.166;8.076;2023-05-02T06:20:38;15.70;57.30
46366;DHT22;32073;49.166;8.076;2023-05-02T06:24:38;15.80;57.50
46366;DHT22;32073;49.166;8.076;2023-05-02T06:28:39;15.80;57.50
46366;DHT22;32073;49.166;8.076;2023-05-02T06:32:40;15.80;57.50
46366;DHT22;32073;49.166;8.076;2023-05-02T06:36:43;15.80;57.50
46366;DHT22;32073;49.166;8.076;2023-05-02T06:40:43;15.90;57.60
46366;DHT22;32073;49.166;8.076;2023-05-02T06:44:44;15.90;57.60
46366;DHT22;32073;49.166;8.076;2023-05-02T06:48:45;16.00;57.60
46366;DHT22;32073;49.166;8.076;2023-05-02T06:52:45;16.10;57.60
46366;DHT22;32073;49.166;8.076;2023-05-02T06:56:46;16.10;57.60
46366;DHT22;32073;49.166;8.076;2023-05-02T07:00:47;16.20;57.60
46366;DHT22;32073;49.166;8.076;2023-05-02T07:04:48;16.30;57.60
46366;DHT22;32073;49.166;8.076;2023-05-02T07:08:49;16.40;57.50
46366;DHT22;32073;49.166;8.076;2023-05-02T07:12:50;16.40;57.30
46366;DHT22;32073;49.166;8.076;2023-05-02T07:16:50;16.50;57.20
46366;DHT22;32073;49.166;8.076;2023-05-02T07:20:51;16.60;57.30
46366;DHT22;32073;49.166;8.076;2023-05-02T07:24:59;16.70;57.20
46366;DHT22;32073;49.166;8.076;2023-05-02T07:29:00;16.80;56.90
46366;DHT22;32073;49.166;8.076;2023-05-02T07:33:01;17.00;57.30
46366;DHT22;32073;49.166;8.076;2023-05-02T07:37:02;17.10;57.20
46366;DHT22;32073;49.166;8.076;2023-05-02T07:41:02;17.20;57.20
46366;DHT22;32073;49.166;8.076;2023-05-02T07:45:03;17.30;57.20
46366;DHT22;32073;49.166;8.076;2023-05-02T07:49:04;17.50;57.10
46366;DHT22;32073;49.166;8.076;2023-05-02T07:53:05;17.70;57.10
46366;DHT22;32073;49.166;8.076;2023-05-02T07:57:05;17.80;57.10
46366;DHT22;32073;49.166;8.076;2023-05-02T08:01:07;18.00;56.90
46366;DHT22;32073;49.166;8.076;2023-05-02T08:05:08;18.10;56.70
46366;DHT22;32073;49.166;8.076;2023-05-02T08:09:09;18.20;56.50
46366;DHT22;32073;49.166;8.076;2023-05-02T08:13:10;18.30;56.30
46366;DHT22;32073;49.166;8.076;2023-05-02T08:17:11;18.40;56.60
46366;DHT22;32073;49.166;8.076;2023-05-02T08:21:12;18.60;56.80
46366;DHT22;32073;49.166;8.076;2023-05-02T08:25:13;18.90;57.10
46366;DHT22;32073;49.166;8.076;2023-05-02T08:29:14;19.10;56.50
46366;DHT22;32073;49.166;8.076;2023-05-02T08:33:14;19.30;55.90
46366;DHT22;32073;49.166;8.076;2023-05-02T08:37:15;19.60;56.00
46366;DHT22;32073;49.166;8.076;2023-05-02T08:41:17;19.70;55.30
46366;DHT22;32073;49.166;8.076;2023-05-02T08:45:19;19.80;54.70
46366;DHT22;32073;49.166;8.076;2023-05-02T08:49:21;19.90;54.00
46366;DHT22;32073;49.166;8.076;2023-05-02T08:53:24;19.90;53.50
46366;DHT22;32073;49.166;8.076;2023-05-02T08:57:27;19.90;53.40
46366;DHT22;32073;49.166;8.076;2023-05-02T09:01:29;20.00;53.30
46366;DHT22;32073;49.166;8.076;2023-05-02T09:05:35;20.10;53.10
46366;DHT22;32073;49.166;8.076;2023-05-02T09:09:39;20.00;53.10
46366;DHT22;32073;49.166;8.076;2023-05-02T09:17:46;20.20;53.10
46366;DHT22;32073;49.166;8.076;2023-05-02T09:21:47;20.20;52.60
46366;DHT22;32073;49.166;8.076;2023-05-02T09:25:48;20.20;52.40
46366;DHT22;32073;49.166;8.076;2023-05-02T09:29:48;20.20;52.30
46366;DHT22;32073;49.166;8.076;2023-05-02T09:33:49;20.10;52.40
46366;DHT22;32073;49.166;8.076;2023-05-02T09:37:51;20.10;52.40
46366;DHT22;32073;49.166;8.076;2023-05-02T09:41:56;20.10;51.90
46366;DHT22;32073;49.166;8.076;2023-05-02T09:46:07;20.10;51.50
46366;DHT22;32073;49.166;8.076;2023-05-02T09:50:09;20.00;51.70
46366;DHT22;32073;49.166;8.076;2023-05-02T09:54:30;20.00;51.60
46366;DHT22;32073;49.166;8.076;2023-05-02T09:58:35;19.90;51.10
46366;DHT22;32073;49.166;8.076;2023-05-02T10:02:36;19.90;51.10
46366;DHT22;32073;49.166;8.076;2023-05-02T10:06:38;19.80;51.40
46366;DHT22;32073;49.166;8.076;2023-05-02T10:10:40;19.90;51.70
46366;DHT22;32073;49.166;8.076;2023-05-02T10:14:49;20.00;51.90
46366;DHT22;32073;49.166;8.076;2023-05-02T10:23:05;20.40;52.40
46366;DHT22;32073;49.166;8.076;2023-05-02T10:27:06;20.40;51.00
46366;DHT22;32073;49.166;8.076;2023-05-02T10:31:12;20.40;50.70
46366;DHT22;32073;49.166;8.076;2023-05-02T10:35:15;20.40;50.00
46366;DHT22;32073;49.166;8.076;2023-05-02T10:39:16;20.40;50.30
46366;DHT22;32073;49.166;8.076;2023-05-02T10:43:17;20.30;50.60
46366;DHT22;32073;49.166;8.076;2023-05-02T10:47:25;20.20;50.00
46366;DHT22;32073;49.166;8.076;2023-05-02T10:51:29;20.20;49.90
46366;DHT22;32073;49.166;8.076;2023-05-02T10:55:31;20.10;49.70
46366;DHT22;32073;49.166;8.076;2023-05-02T10:59:38;20.00;49.90
46366;DHT22;32073;49.166;8.076;2023-05-02T11:04:16;20.00;49.90
46366;DHT22;32073;49.166;8.076;2023-05-02T11:12:57;20.10;49.90
46366;DHT22;32073;49.166;8.076;2023-05-02T11:21:27;20.10;49.60
46366;DHT22;32073;49.166;8.076;2023-05-02T11:25:30;20.10;49.30
46366;DHT22;32073;49.166;8.076;2023-05-02T11:33:58;20.10;49.40
46366;DHT22;32073;49.166;8.076;2023-05-02T11:42:02;20.20;49.40
46366;DHT22;32073;49.166;8.076;2023-05-02T11:46:05;20.30;48.90
46366;DHT22;32073;49.166;8.076;2023-05-02T11:50:06;20.40;48.60
46366;DHT22;32073;49.166;8.076;2023-05-02T11:54:08;20.40;48.80
46366;DHT22;32073;49.166;8.076;2023-05-02T11:58:22;20.40;48.70
46366;DHT22;32073;49.166;8.076;2023-05-02T12:02:43;20.40;48.40
46366;DHT22;32073;49.166;8.076;2023-05-02T12:06:55;20.60;48.00
46366;DHT22;32073;49.166;8.076;2023-05-02T12:10:56;20.60;47.70
46366;DHT22;32073;49.166;8.076;2023-05-02T12:14:57;20.60;47.70
46366;DHT22;32073;49.166;8.076;2023-05-02T12:18:58;20.60;47.50
46366;DHT22;32073;49.166;8.076;2023-05-02T12:23:00;20.70;47.70
46366;DHT22;32073;49.166;8.076;2023-05-02T12:27:14;20.70;47.80
46366;DHT22;32073;49.166;8.076;2023-05-02T12:31:15;20.90;47.50
46366;DHT22;32073;49.166;8.076;2023-05-02T12:35:22;21.10;47.90
46366;DHT22;32073;49.166;8.076;2023-05-02T12:39:34;21.30;46.90
46366;DHT22;32073;49.166;8.076;2023-05-02T12:43:48;21.40;46.70
46366;DHT22;32073;49.166;8.076;2023-05-02T12:47:50;21.60;45.90
46366;DHT22;32073;49.166;8.076;2023-05-02T12:51:53;21.70;46.20
46366;DHT22;32073;49.166;8.076;2023-05-02T12:56:02;21.90;46.50
46366;DHT22;32073;49.166;8.076;2023-05-02T13:00:04;22.00;45.30
46366;DHT22;32073;49.166;8.076;2023-05-02T13:04:05;22.00;45.60
46366;DHT22;32073;49.166;8.076;2023-05-02T13:08:06;22.20;45.60
46366;DHT22;32073;49.166;8.076;2023-05-02T13:12:06;22.30;44.80
46366;DHT22;32073;49.166;8.076;2023-05-02T13:16:07;22.20;44.20
46366;DHT22;32073;49.166;8.076;2023-05-02T13:20:09;22.20;44.20
46366;DHT22;32073;49.166;8.076;2023-05-02T13:24:10;22.20;43.70
46366;DHT22;32073;49.166;8.076;2023-05-02T13:28:12;22.10;43.80
46366;DHT22;32073;49.166;8.076;2023-05-02T13:32:13;22.10;43.60
46366;DHT22;32073;49.166;8.076;2023-05-02T13:36:13;22.00;43.60
46366;DHT22;32073;49.166;8.076;2023-05-02T13:40:14;22.00;43.30
46366;DHT22;32073;49.166;8.076;2023-05-02T13:44:15;21.90;43.40
46366;DHT22;32073;49.166;8.076;2023-05-02T13:48:15;21.90;43.30
46366;DHT22;32073;49.166;8.076;2023-05-02T13:52:16;21.90;43.20
46366;DHT22;32073;49.166;8.076;2023-05-02T13:56:17;22.00;43.60
46366;DHT22;32073;49.166;8.076;2023-05-02T14:00:18;22.20;43.50
46366;DHT22;32073;49.166;8.076;2023-05-02T14:04:20;22.30;43.40
46366;DHT22;32073;49.166;8.076;2023-05-02T14:08:20;22.40;42.70
46366;DHT22;32073;49.166;8.076;2023-05-02T14:12:21;22.50;42.40
46366;DHT22;32073;49.166;8.076;2023-05-02T14:16:22;22.50;42.80
46366;DHT22;32073;49.166;8.076;2023-05-02T14:20:23;22.40;42.20
46366;DHT22;32073;49.166;8.076;2023-05-02T14:24:23;22.30;42.20
46366;DHT22;32073;49.166;8.076;2023-05-02T14:28:24;22.20;42.20
46366;DHT22;32073;49.166;8.076;2023-05-02T14:32:26;22.10;42.10
46366;DHT22;32073;49.166;8.076;2023-05-02T14:36:26;22.00;42.20
46366;DHT22;32073;49.166;8.076;2023-05-02T14:40:27;21.80;42.20
46366;DHT22;32073;49.166;8.076;2023-05-02T14:44:28;21.80;42.40
46366;DHT22;32073;49.166;8.076;2023-05-02T14:48:28;21.60;41.70
46366;DHT22;32073;49.166;8.076;2023-05-02T14:52:29;21.60;41.40
46366;DHT22;32073;49.166;8.076;2023-05-02T14:56:30;21.60;41.30
46366;DHT22;32073;49.166;8.076;2023-05-02T15:00:33;21.60;41.10
46366;DHT22;32073;49.166;8.076;2023-05-02T15:04:35;21.50;40.80
46366;DHT22;32073;49.166;8.076;2023-05-02T15:08:35;21.60;41.30
46366;DHT22;32073;49.166;8.076;2023-05-02T15:12:36;21.60;41.50
46366;DHT22;32073;49.166;8.076;2023-05-02T15:16:37;21.50;41.50
46366;DHT22;32073;49.166;8.076;2023-05-02T15:20:38;21.50;41.40
46366;DHT22;32073;49.166;8.076;2023-05-02T15:24:39;21.40;41.20
46366;DHT22;32073;49.166;8.076;2023-05-02T15:28:40;21.40;41.30
46366;DHT22;32073;49.166;8.076;2023-05-02T15:32:40;21.40;41.30
46366;DHT22;32073;49.166;8.076;2023-05-02T15:36:41;21.50;41.30
46366;DHT22;32073;49.166;8.076;2023-05-02T15:40:42;21.50;41.40
46366;DHT22;32073;49.166;8.076;2023-05-02T15:44:43;21.50;41.00
46366;DHT22;32073;49.166;8.076;2023-05-02T15:48:43;21.40;40.70
46366;DHT22;32073;49.166;8.076;2023-05-02T15:52:44;21.40;40.90
46366;DHT22;32073;49.166;8.076;2023-05-02T15:56:44;21.30;40.70
46366;DHT22;32073;49.166;8.076;2023-05-02T16:00:46;21.30;40.50
46366;DHT22;32073;49.166;8.076;2023-05-02T16:04:46;21.20;40.40
46366;DHT22;32073;49.166;8.076;2023-05-02T16:08:47;21.20;40.70
46366;DHT22;32073;49.166;8.076;2023-05-02T16:12:48;21.20;40.90
46366;DHT22;32073;49.166;8.076;2023-05-02T16:16:49;21.20;40.90
46366;DHT22;32073;49.166;8.076;2023-05-02T16:20:49;21.20;41.00
46366;DHT22;32073;49.166;8.076;2023-05-02T16:24:52;21.10;40.90
46366;DHT22;32073;49.166;8.076;2023-05-02T16:28:52;21.20;40.90
46366;DHT22;32073;49.166;8.076;2023-05-02T16:32:53;21.10;41.00
46366;DHT22;32073;49.166;8.076;2023-05-02T16:36:54;21.00;41.00
46366;DHT22;32073;49.166;8.076;2023-05-02T16:40:55;20.90;41.20
46366;DHT22;32073;49.166;8.076;2023-05-02T16:44:56;20.70;41.30
46366;DHT22;32073;49.166;8.076;2023-05-02T16:48:57;20.60;41.40
46366;DHT22;32073;49.166;8.076;2023-05-02T16:52:58;20.50;41.60
46366;DHT22;32073;49.166;8.076;2023-05-02T16:56:58;20.50;41.70
46366;DHT22;32073;49.166;8.076;2023-05-02T17:01:01;20.50;41.80
46366;DHT22;32073;49.166;8.076;2023-05-02T17:05:02;20.50;41.80
46366;DHT22;32073;49.166;8.076;2023-05-02T17:09:03;20.40;42.00
46366;DHT22;32073;49.166;8.076;2023-05-02T17:13:04;20.30;41.90
46366;DHT22;32073;49.166;8.076;2023-05-02T17:17:05;20.40;42.10
46366;DHT22;32073;49.166;8.076;2023-05-02T17:21:05;20.30;42.10
46366;DHT22;32073;49.166;8.076;2023-05-02T17:25:08;20.20;41.90
46366;DHT22;32073;49.166;8.076;2023-05-02T17:29:10;20.10;42.00
46366;DHT22;32073;49.166;8.076;2023-05-02T17:33:10;20.10;42.20
46366;DHT22;32073;49.166;8.076;2023-05-02T17:37:11;20.00;42.20
46366;DHT22;32073;49.166;8.076;2023-05-02T17:41:12;19.90;42.30
46366;DHT22;32073;49.166;8.076;2023-05-02T17:45:14;19.90;42.30
46366;DHT22;32073;49.166;8.076;2023-05-02T17:49:15;19.80;42.30
46366;DHT22;32073;49.166;8.076;2023-05-02T17:53:16;19.70;42.30
46366;DHT22;32073;49.166;8.076;2023-05-02T17:57:17;19.60;42.30
46366;DHT22;32073;49.166;8.076;2023-05-02T18:01:18;19.50;42.30
46366;DHT22;32073;49.166;8.076;2023-05-02T18:05:19;19.50;42.40
46366;DHT22;32073;49.166;8.076;2023-05-02T18:09:21;19.50;42.60
46366;DHT22;32073;49.166;8.076;2023-05-02T18:13:22;19.30;42.50
46366;DHT22;32073;49.166;8.076;2023-05-02T18:17:22;19.20;42.50
46366;DHT22;32073;49.166;8.076;2023-05-02T18:21:23;19.20;42.50
46366;DHT22;32073;49.166;8.076;2023-05-02T18:25:25;19.10;42.60
46366;DHT22;32073;49.166;8.076;2023-05-02T18:29:26;19.00;42.60
46366;DHT22;32073;49.166;8.076;2023-05-02T18:33:26;19.00;42.70
46366;DHT22;32073;49.166;8.076;2023-05-02T18:37:27;18.90;42.70
46366;DHT22;32073;49.166;8.076;2023-05-02T18:41:30;18.80;42.70
46366;DHT22;32073;49.166;8.076;2023-05-02T18:45:31;18.70;42.70
46366;DHT22;32073;49.166;8.076;2023-05-02T18:49:32;18.60;42.70
46366;DHT22;32073;49.166;8.076;2023-05-02T18:53:33;18.40;42.70
46366;DHT22;32073;49.166;8.076;2023-05-02T18:57:34;18.30;43.50
46366;DHT22;32073;49.166;8.076;2023-05-02T19:01:35;18.20;43.00
46366;DHT22;32073;49.166;8.076;2023-05-02T19:05:38;18.10;43.00
46366;DHT22;32073;49.166;8.076;2023-05-02T19:09:39;18.10;43.30
46366;DHT22;32073;49.166;8.076;2023-05-02T19:13:40;18.00;43.30
46366;DHT22;32073;49.166;8.076;2023-05-02T19:17:40;17.90;43.30
46366;DHT22;32073;49.166;8.076;2023-05-02T19:21:43;17.80;43.50
46366;DHT22;32073;49.166;8.076;2023-05-02T19:25:45;17.70;43.50
46366;DHT22;32073;49.166;8.076;2023-05-02T19:29:46;17.60;43.60
46366;DHT22;32073;49.166;8.076;2023-05-02T19:33:47;17.60;43.80
46366;DHT22;32073;49.166;8.076;2023-05-02T19:37:51;17.50;43.80
46366;DHT22;32073;49.166;8.076;2023-05-02T19:41:51;17.40;43.90
46366;DHT22;32073;49.166;8.076;2023-05-02T19:45:53;17.40;44.10
46366;DHT22;32073;49.166;8.076;2023-05-02T19:49:53;17.30;44.10
46366;DHT22;32073;49.166;8.076;2023-05-02T19:53:54;17.20;44.10
46366;DHT22;32073;49.166;8.076;2023-05-02T19:57:58;17.20;44.10
46366;DHT22;32073;49.166;8.076;2023-05-02T20:01:59;17.10;44.20
46366;DHT22;32073;49.166;8.076;2023-05-02T20:06:00;17.00;44.20
46366;DHT22;32073;49.166;8.076;2023-05-02T20:10:01;16.90;44.20
46366;DHT22;32073;49.166;8.076;2023-05-02T20:14:01;16.90;44.30
46366;DHT22;32073;49.166;8.076;2023-05-02T20:18:02;16.80;44.40
46366;DHT22;32073;49.166;8.076;2023-05-02T20:22:03;16.70;44.40
46366;DHT22;32073;49.166;8.076;2023-05-02T20:26:04;16.70;44.40
46366;DHT22;32073;49.166;8.076;2023-05-02T20:30:06;16.50;45.00
46366;DHT22;32073;49.166;8.076;2023-05-02T20:34:07;16.40;44.40
46366;DHT22;32073;49.166;8.076;2023-05-02T20:38:08;16.40;44.50
46366;DHT22;32073;49.166;8.076;2023-05-02T20:42:09;16.30;44.60
46366;DHT22;32073;49.166;8.076;2023-05-02T20:46:11;16.20;44.70
46366;DHT22;32073;49.166;8.076;2023-05-02T20:50:13;16.10;44.80
46366;DHT22;32073;49.166;8.076;2023-05-02T20:54:17;16.00;44.80
46366;DHT22;32073;49.166;8.076;2023-05-02T20:58:17;16.00;45.00
46366;DHT22;32073;49.166;8.076;2023-05-02T21:02:18;15.90;45.00
46366;DHT22;32073;49.166;8.076;2023-05-02T21:06:20;15.90;45.10
46366;DHT22;32073;49.166;8.076;2023-05-02T21:10:21;15.80;45.20
46366;DHT22;32073;49.166;8.076;2023-05-02T21:14:23;15.80;45.20
46366;DHT22;32073;49.166;8.076;2023-05-02T21:18:24;15.70;45.20
46366;DHT22;32073;49.166;8.076;2023-05-02T21:22:24;15.70;45.30
46366;DHT22;32073;49.166;8.076;2023-05-02T21:26:26;15.60;45.30
46366;DHT22;32073;49.166;8.076;2023-05-02T21:30:26;15.50;45.30
46366;DHT22;32073;49.166;8.076;2023-05-02T21:34:27;15.50;45.40
46366;DHT22;32073;49.166;8.076;2023-05-02T21:38:28;15.40;45.40
46366;DHT22;32073;49.166;8.076;2023-05-02T21:42:28;15.30;45.30
46366;DHT22;32073;49.166;8.076;2023-05-02T21:46:29;15.30;45.40
46366;DHT22;32073;49.166;8.076;2023-05-02T21:50:30;15.30;45.40
46366;DHT22;32073;49.166;8.076;2023-05-02T21:54:31;15.20;45.30
46366;DHT22;32073;49.166;8.076;2023-05-02T21:58:32;15.10;45.30
46366;DHT22;32073;49.166;8.076;2023-05-02T22:02:33;15.00;45.40
46366;DHT22;32073;49.166;8.076;2023-05-02T22:06:34;15.00;45.50
46366;DHT22;32073;49.166;8.076;2023-05-02T22:10:36;14.90;45.50
46366;DHT22;32073;49.166;8.076;2023-05-02T22:14:39;14.80;45.70
46366;DHT22;32073;49.166;8.076;2023-05-02T22:18:41;14.80;45.80
46366;DHT22;32073;49.166;8.076;2023-05-02T22:22:43;14.70;45.90
46366;DHT22;32073;49.166;8.076;2023-05-02T22:26:44;14.70;46.10
46366;DHT22;32073;49.166;8.076;2023-05-02T22:30:48;14.70;46.40
46366;DHT22;32073;49.166;8.076;2023-05-02T22:34:49;14.60;46.40
46366;DHT22;32073;49.166;8.076;2023-05-02T22:38:49;14.50;46.50
46366;DHT22;32073;49.166;8.076;2023-05-02T22:42:50;14.50;47.10
46366;DHT22;32073;49.166;8.076;2023-05-02T22:46:51;14.40;46.50
46366;DHT22;32073;49.166;8.076;2023-05-02T22:50:52;14.40;46.70
46366;DHT22;32073;49.166;8.076;2023-05-02T22:54:52;14.30;46.70
46366;DHT22;32073;49.166;8.076;2023-05-02T22:58:53;14.30;46.70
46366;DHT22;32073;49.166;8.076;2023-05-02T23:02:54;14.30;46.80
46366;DHT22;32073;49.166;8.076;2023-05-02T23:06:55;14.20;46.90
46366;DHT22;32073;49.166;8.076;2023-05-02T23:10:56;14.10;46.90
46366;DHT22;32073;49.166;8.076;2023-05-02T23:14:56;14.10;46.90
46366;DHT22;32073;49.166;8.076;2023-05-02T23:18:57;14.00;47.10
46366;DHT22;32073;49.166;8.076;2023-05-02T23:22:58;14.00;47.20
46366;DHT22;32073;49.166;8.076;2023-05-02T23:26:58;13.90;47.20
46366;DHT22;32073;49.166;8.076;2023-05-02T23:30:59;13.90;47.40
46366;DHT22;32073;49.166;8.076;2023-05-02T23:35:00;13.80;47.40
46366;DHT22;32073;49.166;8.076;2023-05-02T23:39:01;13.80;47.50
46366;DHT22;32073;49.166;8.076;2023-05-02T23:43:02;13.70;47.50
46366;DHT22;32073;49.166;8.076;2023-05-02T23:47:02;13.70;47.70
46366;DHT22;32073;49.166;8.076;2023-05-02T23:51:03;13.60;47.70
46366;DHT22;32073;49.166;8.076;2023-05-02T23:55:04;13.60;47.80
46366;DHT22;32073;49.166;8.076;2023-05-02T23:59:09;13.50;47.80
